logo
App data

Rubber and Lead

Rubber & Lead is a 2D Top Down Vehicle Combat RPG- Shoot your way through post-apocalyptic Arizona. Go on missions, upgrade your cars, equip your weapons, and blast away your enemies!
Store | Hub | SteamDB
Developer: Omega Point Games Publisher: Cleverweek
Genre: Action, Indie, RPG
Languages: English
Tags: Action (32), Indie (28), RPG (23), Shooter (5), Driving (5), Racing (5)
Category: Single-player, Steam Achievements, Steam Trading Cards
Release date: Sep 4, 2015
Price: $4.99
Old userscore: 47% Owners: 50,000 .. 100,000
Followers: 225
Playtime total: 04:23 (average) 05:20 (median)

Steam Spy is still in beta, so expect major bugs.

Owners data:

Access restricted.

This feature is only available to users with special access rights. Sorry.

If you want to proceed, you need to register or log in first and then back Steam Spy on Patreon. Look for Indie or Pro pledge.

Don't forget to use the same email as on Steam Spy!

Audience in 2 weeks:

Access restricted.

This feature is only available to users with special access rights. Sorry.

If you want to proceed, you need to register or log in first and then back Steam Spy on Patreon. Look for Indie or Pro pledge.

Don't forget to use the same email as on Steam Spy!

Peak daily concurrent players:

CCU data courtesy of SteamDB. Used with permission.

Hourly concurrent players:

YouTube:

The views data is based on top 50 videos uploaded last week. Actual number of views might be more than the number shown.

The displayed number of videos uploaded yesterday is limited to 50, so if there were more videos uploaded, the number will still show 50.

If the game has commonly used word as its name (like "FEAR" or "Volume") its number of Youtube views might be wrong.

Games similar to this one:

# Game Release date
Price
Score rank
(Userscore / Metascore)
Owners
Players
Playtime (Median)
1 Delve Deeper Sep 24, 2010 $4.99N/A (N/A)50,000 .. 100,0000%00:00 (00:00)
2 Heavy Fire: Afghanistan Aug 15, 2014 $2.99N/A (N/A)50,000 .. 100,0000%00:00 (00:00)
3 Darknet Jun 8, 2017 $14.99N/A (N/A)0 .. 20,0000%00:00 (00:00)
4 Sword of the Stars II: Enhanced Edition Nov 30, 2012 $19.99N/A (N/A/65%)100,000 .. 200,0000%00:00 (00:00)
5 Spice Road Apr 24, 2014 $19.99N/A (N/A)0 .. 20,0000%00:00 (00:00)
6 Kidnapped Aug 4, 2015 $2.99N/A (N/A)100,000 .. 200,0000%00:00 (00:00)
7 Warhammer 40,000: Dawn of War – Winter Assault Jan 1, 2006 $12.99N/A (N/A)500,000 .. 1,000,0000%00:00 (00:00)
8 Super Chibi Knight Jun 24, 2015 $4.99N/A (N/A)20,000 .. 50,0000%00:00 (00:00)
9 Jim Power -The Lost Dimension Dec 10, 1993 $4.99N/A (N/A)0 .. 20,0000%00:00 (00:00)
10 Ground Pounders Jul 15, 2014 $4.99N/A (N/A)0 .. 20,0000%00:00 (00:00)
11 Assassin’s Creed Chronicles: India Jan 12, 2016 $9.99N/A (N/A)20,000 .. 50,0000%00:00 (00:00)
12 Zombie Tycoon 2: Brainhov's Revenge Dec 9, 2013 $4.99N/A (N/A)50,000 .. 100,0000%00:00 (00:00)
13 Lux Delux May 1, 2015 $9.99N/A (N/A)20,000 .. 50,0000%00:00 (00:00)
14 Wanderlust Adventures Aug 10, 2015 $9.99N/A (N/A)20,000 .. 50,0000%00:00 (00:00)
15 ManaCollect Apr 17, 2015 $6.99N/A (N/A)0 .. 20,0000%00:00 (00:00)
16 ROD: Revolt Of Defense Aug 12, 2016 $0.62N/A (N/A)20,000 .. 50,0000%00:00 (00:00)
17 Zeno Clash 2 Apr 30, 2013 $14.99N/A (N/A)200,000 .. 500,0000%00:00 (00:00)
18 Toren May 11, 2015 $9.99N/A (N/A/57%)50,000 .. 100,0000%00:00 (00:00)
19 Codex of Victory Mar 16, 2017 $14.99N/A (N/A)0 .. 20,0000%00:00 (00:00)
20 Fate of the World Feb 28, 2011 $9.99N/A (N/A/70%)50,000 .. 100,0000%00:00 (00:00)
21 The Stalin Subway Sep 19, 2014 $3.99N/A (N/A)20,000 .. 50,0000%00:00 (00:00)
22 Kill The Plumber Dec 31, 2015 $4.99N/A (N/A)0 .. 20,0000%00:00 (00:00)
23 Patrician IV - Steam Special Edition Sep 17, 2010 $14.99N/A (N/A/66%)100,000 .. 200,0000%00:00 (00:00)
24 Victory At Sea Aug 8, 2014 $24.99N/A (N/A)50,000 .. 100,0000%00:00 (00:00)
25 Miracle Fly Oct 26, 2015 $7.99N/A (N/A)20,000 .. 50,0000%00:00 (00:00)
26 Supreme Ruler 2020 Gold Jul 9, 2009 $9.99N/A (N/A/65%)50,000 .. 100,0000%00:00 (00:00)
27 Perimeter Apr 3, 2014 $3.99N/A (N/A/77%)20,000 .. 50,0000%00:00 (00:00)
28 Alarameth TD Jun 23, 2015 $4.99N/A (N/A)0 .. 20,0000%00:00 (00:00)
29 Act of War: Direct Action Mar 14, 2005 $2.99N/A (N/A/82%)20,000 .. 50,0000%00:00 (00:00)
30 Albedo: Eyes from Outer Space Apr 10, 2015 $14.99N/A (N/A/66%)20,000 .. 50,0000%00:00 (00:00)
31 Disposable Heroes Oct 1, 2015 $4.99N/A (N/A)20,000 .. 50,0000%00:00 (00:00)
32 Pixel Boy and the Ever Expanding Dungeon May 30, 2014 $0.99N/A (N/A)20,000 .. 50,0000%00:00 (00:00)
33 Cultures - 8th Wonder of the World Mar 26, 2015 $4.99N/A (N/A)100,000 .. 200,0000%00:00 (00:00)
34 Flashback Oct 1, 2013 $9.99N/A (N/A)20,000 .. 50,0000%00:00 (00:00)
35 Headlander Jul 25, 2016 $19.99N/A (N/A/74%)50,000 .. 100,0000%00:00 (00:00)
36 Pain Train Jan 11, 2017 $4.99N/A (N/A)100,000 .. 200,0000%00:00 (00:00)
37 Skulls of the Shogun Jul 29, 2013 $9.99N/A (N/A/72%)100,000 .. 200,0000%00:00 (00:00)
38 TRON 2.0 Oct 10, 2014 $9.99N/A (N/A/84%)50,000 .. 100,0000%00:00 (00:00)
39 Weird Hero Nov 18, 2016 $1.19N/A (N/A)0 .. 20,0000%00:00 (00:00)
40 Jagged Alliance: Crossfire Aug 24, 2012 $14.99N/A (N/A/63%)100,000 .. 200,0000%00:00 (00:00)
41 Wave of Darkness Nov 5, 2015 $29.99N/A (N/A)0 .. 20,0000%00:00 (00:00)
42 Pharaoh Rebirth+ Mar 17, 2016 $9.99N/A (N/A)0 .. 20,0000%00:00 (00:00)
43 Fantasy Wars Aug 6, 2010 $4.99N/A (N/A/67%)50,000 .. 100,0000%00:00 (00:00)
44 Will Fight for Food: Super Actual Sellout: Game of the Hour Apr 22, 2015 $4.99N/A (N/A)0 .. 20,0000%00:00 (00:00)
45 The Political Machine 2016 Feb 4, 2016 $9.99N/A (N/A)50,000 .. 100,0000%00:00 (00:00)
46 Dead Rising 2: Off the Record Oct 11, 2011 $19.99N/A (N/A/66%)200,000 .. 500,0000%00:00 (00:00)
47 Merchants of Kaidan Nov 10, 2014 $14.99N/A (N/A)100,000 .. 200,0000%00:00 (00:00)
48 Cross of the Dutchman Sep 10, 2015 $8.99N/A (N/A/59%)20,000 .. 50,0000%00:00 (00:00)
49 Supreme Commander Feb 20, 2007 $12.99N/A (N/A/86%)1,000,000 .. 2,000,0000%00:00 (00:00)
50 Battleplan: American Civil War Jul 4, 2014 $9.99N/A (N/A/66%)100,000 .. 200,0000%00:00 (00:00)
51 Gridberd Sep 7, 2015 $0.69N/A (N/A)200,000 .. 500,0000%00:00 (00:00)
52 Gun Metal Jan 16, 2014 $2.99N/A (N/A)200,000 .. 500,0000%00:00 (00:00)
53 Nightside Apr 2, 2015 $4.99N/A (N/A)20,000 .. 50,0000%00:00 (00:00)
54 Dusty Revenge:Co-Op Edition Feb 17, 2014 $14.99N/A (N/A)50,000 .. 100,0000%00:00 (00:00)
55 Human Extinction Simulator Jan 21, 2015 $19.99N/A (N/A)0 .. 20,0000%00:00 (00:00)
56 Ittle Dew Jul 23, 2013 $9.99N/A (N/A/67%)100,000 .. 200,0000%00:00 (00:00)
57 Bet On Soldier Sep 26, 2005 $7.99N/A (N/A)50,000 .. 100,0000%00:00 (00:00)
58 Battle Time Sep 29, 2016 $0.99N/A (N/A)50,000 .. 100,0000%00:00 (00:00)
59 Jagged Alliance 2 - Wildfire Mar 8, 2004 $6.99N/A (N/A)200,000 .. 500,0002.86%07:03 (02:21)
60 Wickland Nov 14, 2014 $0.99N/A (N/A)50,000 .. 100,0000%00:00 (00:00)
61 Urban Pirate Jun 17, 2016 $6.99N/A (N/A)0 .. 20,0000%00:00 (00:00)
62 A.R.E.S.: Extinction Agenda Jan 19, 2011 $4.99N/A (N/A/68%)100,000 .. 200,0000%00:00 (00:00)
63 Super Trench Attack! Jul 24, 2014 $0.99N/A (N/A)50,000 .. 100,0000%00:00 (00:00)
64 Into the Void Dec 4, 2015 $4.99N/A (N/A)20,000 .. 50,0000%00:00 (00:00)
65 Dungeons Feb 10, 2011 $9.99N/A (N/A/65%)200,000 .. 500,0000%00:00 (00:00)
66 Orbital Gear Aug 7, 2014 $9.99N/A (N/A/59%)200,000 .. 500,0000%00:00 (00:00)
67 Space Food Truck Mar 25, 2016 $9.99N/A (N/A)20,000 .. 50,0000%00:00 (00:00)
68 Majesty Gold HD Sep 4, 2009 $9.99N/A (N/A)100,000 .. 200,0000%00:00 (00:00)
69 Marauder Apr 4, 2014 $9.99N/A (N/A)50,000 .. 100,0000%00:00 (00:00)
70 Tcheco in the Castle of Lucio Jun 22, 2015 $0.99N/A (N/A)50,000 .. 100,0000%00:00 (00:00)
71 Advent Rising Sep 14, 2006 $9.99N/A (N/A/70%)50,000 .. 100,0000%00:00 (00:00)
72 RIVE: Wreck, Hack, Die, Retry! Sep 13, 2016 $14.99N/A (N/A)200,000 .. 500,0000%00:00 (00:00)
73 Zombie Zoeds May 20, 2015 $0.99N/A (N/A)200,000 .. 500,0000%00:00 (00:00)
74 Unearthed: Trail of Ibn Battuta - Episode 1 - Gold Edition Jan 3, 2014 $4.99N/A (N/A)20,000 .. 50,0000%00:00 (00:00)
75 Fort Meow Jun 25, 2015 $7.99N/A (N/A)0 .. 20,0000%00:00 (00:00)
76 Dominions 3: The Awakening Sep 10, 2013 $4.99N/A (N/A/82%)20,000 .. 50,0000%00:00 (00:00)
77 Shadows of War Sep 19, 2014 $2.99N/A (N/A)20,000 .. 50,0000%00:00 (00:00)
78 Castle Werewolf 3D Feb 7, 2017 $0.51N/A (N/A)50,000 .. 100,0000%00:00 (00:00)
79 Eador: Genesis Oct 14, 2013 $5.99N/A (N/A)50,000 .. 100,0000%00:00 (00:00)
80 7th Legion Oct 23, 2014 $6.99N/A (N/A)20,000 .. 50,0000%00:00 (00:00)
81 Woodle Tree 2: Worlds Sep 16, 2016 $3.99N/A (N/A)50,000 .. 100,0000%00:00 (00:00)
82 Warlock 2: The Exiled Apr 10, 2014 $19.99N/A (N/A/73%)50,000 .. 100,0000%00:00 (00:00)
83 Hunters Of The Dead Sep 4, 2014 $4.99N/A (N/A)0 .. 20,0000%00:00 (00:00)
84 Revenge of Roger Rouge Apr 22, 2016 $0.99N/A (N/A)20,000 .. 50,0000%00:00 (00:00)
85 Men of War: Vietnam Sep 8, 2011 $7.99N/A (N/A/68%)100,000 .. 200,0000%00:00 (00:00)
86 Nux Aug 15, 2014 $6.99N/A (N/A)100,000 .. 200,0000%00:00 (00:00)
87 Lethe - Episode One Aug 1, 2016 $14.99N/A (N/A)0 .. 20,0000%00:00 (00:00)
88 Star Wolves 3: Civil War Mar 2, 2010 $4.99N/A (N/A)100,000 .. 200,0000%00:00 (00:00)
89 Hero Generations Apr 10, 2015 $5.99N/A (N/A)20,000 .. 50,0000%00:00 (00:00)
90 Infection: Humanity's Last Gasp May 26, 2016 $9.99N/A (N/A)0 .. 20,0000%00:00 (00:00)
91 Port Royale 2 Jun 16, 2009 $4.99N/A (N/A/75%)50,000 .. 100,0000%00:00 (00:00)
92 The Entente Gold Jun 16, 2014 $1.99N/A (N/A)50,000 .. 100,0000%00:00 (00:00)
93 Gnumz: Masters of Defense Dec 21, 2015 $4.99N/A (N/A)20,000 .. 50,0000%00:00 (00:00)
94 Antisquad May 22, 2014 $5.99N/A (N/A)50,000 .. 100,0000%00:00 (00:00)
95 Once Bitten, Twice Dead! Jul 17, 2015 $4.99N/A (N/A)0 .. 20,0000%00:00 (00:00)
96 McDROID Sep 5, 2014 $9.99N/A (N/A)0 .. 20,0000%00:00 (00:00)
97 Synonymy Dec 12, 2014 $1.99N/A (N/A)0 .. 20,0000%00:00 (00:00)
98 CastleStorm Jul 29, 2013 $9.99N/A (N/A/73%)100,000 .. 200,0000%00:00 (00:00)
99 Vietnam ‘65 Mar 5, 2015 $9.99N/A (N/A/81%)20,000 .. 50,0000%00:00 (00:00)
100 BitMaster Oct 12, 2016 $2.99N/A (N/A)200,000 .. 500,0000%00:00 (00:00)
101 Gemini Wars Nov 2, 2012 $14.99N/A (N/A/53%)20,000 .. 50,0000%00:00 (00:00)
102 War, the Game Jan 12, 2015 $6.99N/A (N/A/65%)20,000 .. 50,0000%00:00 (00:00)
103 Purgatory Jun 22, 2016 $0.99N/A (N/A)200,000 .. 500,0000%00:00 (00:00)
104 Demolition Inc. Sep 19, 2011 $5.99N/A (N/A)50,000 .. 100,0000%00:00 (00:00)
105 Legions of Steel Jul 16, 2015 $19.99N/A (N/A/64%)0 .. 20,0000%00:00 (00:00)
106 Neon Chrome Apr 28, 2016 $14.99N/A (N/A/74%)200,000 .. 500,0000%00:00 (00:00)
107 A Game of Thrones - Genesis Sep 28, 2011 $9.99N/A (N/A)100,000 .. 200,0000%00:00 (00:00)
108 Rooks Keep Dec 5, 2014 $7.99N/A (N/A)0 .. 20,0000%00:00 (00:00)
109 Arcane Sorcery Sep 15, 2015 FreeN/A (N/A)20,000 .. 50,0000%00:00 (00:00)
110 Caster Mar 19, 2009 $1.99N/A (N/A)200,000 .. 500,0000%00:00 (00:00)
111 7,62 High Calibre Apr 30, 2014 $4.99N/A (N/A)50,000 .. 100,0000%00:00 (00:00)
112 Rack N Ruin Sep 1, 2015 $9.99N/A (N/A)0 .. 20,0000%00:00 (00:00)
113 BloodRayne Sep 14, 2006 $9.99N/A (N/A/65%)50,000 .. 100,0000%00:00 (00:00)
114 Interplanetary May 12, 2015 N/AN/A (N/A)100,000 .. 200,0000%00:00 (00:00)
115 Close Combat - Panthers in the Fog Nov 19, 2012 $39.99N/A (N/A)0 .. 20,0000%00:00 (00:00)
116 SPACECOM Sep 17, 2014 $9.99N/A (N/A/68%)100,000 .. 200,0000%00:00 (00:00)
117 Spirit of War Mar 12, 2015 $9.99N/A (N/A)20,000 .. 50,0000%00:00 (00:00)
118 Zafehouse: Diaries Sep 6, 2013 $1.99N/A (N/A)50,000 .. 100,0000%00:00 (00:00)
119 Tallowmere Mar 3, 2015 $1.59N/A (N/A)20,000 .. 50,0000%00:00 (00:00)
120 Defence to death May 11, 2017 $0.59N/A (N/A)20,000 .. 50,0000%00:00 (00:00)
121 Horizon Feb 6, 2014 $29.99N/A (N/A/58%)50,000 .. 100,0000%00:00 (00:00)
122 Frozen Synapse Prime Nov 14, 2014 $24.99N/A (N/A/83%)50,000 .. 100,0000%00:00 (00:00)
123 Pigmentone Jul 8, 2016 $1.99N/A (N/A)0 .. 20,0000%00:00 (00:00)
124 Stellar Impact Apr 12, 2012 $9.99N/A (N/A/74%)50,000 .. 100,0000%00:00 (00:00)
125 Malebolgia May 6, 2015 $12.99N/A (N/A)20,000 .. 50,0000%00:00 (00:00)
126 Envoy Mar 17, 2016 $4.99N/A (N/A)50,000 .. 100,0000%00:00 (00:00)
127 Carrier Command: Gaea Mission Sep 28, 2012 $32.99N/A (N/A/60%)200,000 .. 500,0000%00:00 (00:00)
128 Gold Rush! Classic Jul 25, 2014 $1.01N/A (N/A)200,000 .. 500,0000%00:00 (00:00)
129 Knight Adventure Oct 15, 2015 $0.99N/A (N/A)50,000 .. 100,0000%00:00 (00:00)
130 Theatre of War 2: Africa 1943 Jul 9, 2010 $4.99N/A (N/A/63%)100,000 .. 200,0000%00:00 (00:00)
131 Olympia Rising Jul 23, 2015 $4.99N/A (N/A)20,000 .. 50,0000%00:00 (00:00)
132 Pharaonic Apr 28, 2016 $14.99N/A (N/A)20,000 .. 50,0000%00:00 (00:00)
133 Hunting Unlimited 2008 Jan 29, 2008 $9.99N/A (N/A)20,000 .. 50,0000%00:00 (00:00)
134 Enemy Mind Jun 6, 2014 $9.99N/A (N/A)200,000 .. 500,0000%00:00 (00:00)
135 Spooky Cats Jun 4, 2015 $2.99N/A (N/A)20,000 .. 50,0000%00:00 (00:00)
136 Meltdown Jun 5, 2014 $6.99N/A (N/A)50,000 .. 100,0000%00:00 (00:00)
137 Heaven Forest NIGHTS Mar 14, 2017 $0.99N/A (N/A)100,000 .. 200,0000%00:00 (00:00)
138 Silent Storm Gold Edition Oct 2, 2013 $9.99N/A (N/A/83%)200,000 .. 500,0000%00:00 (00:00)
139 Tiamat X May 29, 2015 $1.99N/A (N/A)50,000 .. 100,0000%00:00 (00:00)
140 Guncraft Aug 9, 2013 $14.99N/A (N/A/73%)100,000 .. 200,0000%00:00 (00:00)
141 Bloodsports.TV Mar 30, 2015 $9.99N/A (N/A/69%)100,000 .. 200,0000%00:00 (00:00)
142 Toadled Sep 22, 2016 $0.99N/A (N/A)50,000 .. 100,0000%00:00 (00:00)
143 Eufloria HD Oct 14, 2014 $14.99N/A (N/A)100,000 .. 200,0000%00:00 (00:00)
144 Desert Ashes Nov 10, 2014 $4.99N/A (N/A)20,000 .. 50,0000%00:00 (00:00)
145 Slash or Die Jun 3, 2016 $2.99N/A (N/A)20,000 .. 50,0000%00:00 (00:00)
146 Warp Mar 21, 2012 $9.99N/A (N/A)20,000 .. 50,0000%00:00 (00:00)
147 Ys VI: The Ark of Napishtim Apr 28, 2015 $19.99N/A (N/A/76%)50,000 .. 100,0000%00:00 (00:00)
148 Super Helmets on Fire DX Ultra Edition Plus Alpha Feb 15, 2016 $0.99N/A (N/A)0 .. 20,0000%00:00 (00:00)
149 Power of Defense Aug 4, 2010 $9.99N/A (N/A)0 .. 20,0000%00:00 (00:00)
150 The Few Jun 18, 2014 $7.99N/A (N/A)20,000 .. 50,0000%00:00 (00:00)
151 Little Big Adventure 2 Oct 20, 2015 $3.99N/A (N/A)20,000 .. 50,0000%00:00 (00:00)
152 LEGO Indiana Jones 2: The Adventure Continues Feb 18, 2010 $19.99N/A (N/A/66%)50,000 .. 100,0000%00:00 (00:00)
153 The Fall May 30, 2014 $9.99N/A (N/A/76%)200,000 .. 500,0000%00:00 (00:00)
154 Valley Aug 24, 2016 $4.99N/A (N/A)200,000 .. 500,0000%00:00 (00:00)
155 CivCity: Rome Apr 6, 2007 $9.99N/A (N/A/67%)50,000 .. 100,0000%00:00 (00:00)
156 Abalone Apr 23, 2014 $6.99N/A (N/A)0 .. 20,0000%00:00 (00:00)
157 Adventure in the Tower of Flight Dec 23, 2015 $4.99N/A (N/A)0 .. 20,0000%00:00 (00:00)
158 Guns n Zombies Oct 30, 2014 $0.79N/A (N/A)100,000 .. 200,0000%00:00 (00:00)
159 King of Dragon Pass Jul 28, 2015 $11.99N/A (N/A)20,000 .. 50,0000%00:00 (00:00)
160 Dark Matter Oct 17, 2013 $9.99N/A (N/A)0 .. 20,0000%00:00 (00:00)
161 Armed with Wings: Rearmed Jun 1, 2017 $9.99N/A (N/A)20,000 .. 50,0000%00:00 (00:00)
162 Pain Train 2 Mar 16, 2017 $9.99N/A (N/A)20,000 .. 50,0000%00:00 (00:00)
163 Anomaly 2 May 15, 2013 $14.99N/A (N/A/77%)200,000 .. 500,0000%00:00 (00:00)
164 Robotex Nov 18, 2014 $4.99N/A (N/A)100,000 .. 200,0000%00:00 (00:00)
165 Sorcerer King: Rivals Sep 22, 2016 $19.99N/A (N/A)20,000 .. 50,0000%00:00 (00:00)
166 Tryst Sep 14, 2012 $14.99N/A (N/A/50%)0 .. 20,0000%00:00 (00:00)
167 Platypus II Aug 15, 2014 $6.99N/A (N/A)200,000 .. 500,0000%00:00 (00:00)
168 Chicken Invaders 2 Mar 4, 2016 $3.99N/A (N/A)0 .. 20,0000%00:00 (00:00)
169 Star Ruler Sep 20, 2010 $9.99N/A (N/A)100,000 .. 200,0000%00:00 (00:00)
170 Airship Dragoon Aug 26, 2014 $9.99N/A (N/A)0 .. 20,0000%00:00 (00:00)
171 Galaxy Admirals Jan 17, 2017 $1.99N/A (N/A)50,000 .. 100,0000%00:00 (00:00)
172 Theatre of War 2: Kursk 1943 Jul 9, 2010 $4.99N/A (N/A)50,000 .. 100,0000%00:00 (00:00)
173 Evopollution Apr 23, 2014 $4.99N/A (N/A)0 .. 20,0000%00:00 (00:00)
174 After The End: The Harvest Jun 2, 2017 $4.99N/A (N/A)20,000 .. 50,0000%00:00 (00:00)
175 Nuclear Dawn Sep 26, 2011 $9.99N/A (N/A/71%)200,000 .. 500,0000%00:00 (00:00)
176 Avoid - Sensory Overload Apr 8, 2014 $4.99N/A (N/A)20,000 .. 50,0000%00:00 (00:00)
177 Explosionade Sep 23, 2015 $3.99N/A (N/A)0 .. 20,0000%00:00 (00:00)
178 Time Rifters Oct 21, 2014 $9.99N/A (N/A)0 .. 20,0000%00:00 (00:00)
179 Solar Shifter EX Sep 11, 2015 $4.99N/A (N/A)20,000 .. 50,0000%00:00 (00:00)
180 PixelJunk Shooter Nov 11, 2013 $8.99N/A (N/A/73%)100,000 .. 200,0000%00:00 (00:00)
181 CRYPTARK Jun 20, 2017 $14.99N/A (N/A/80%)50,000 .. 100,0000%00:00 (00:00)
182 In Verbis Virtus Apr 3, 2015 $4.99N/A (N/A)50,000 .. 100,0000%00:00 (00:00)
183 Deadnaut Nov 27, 2014 $9.99N/A (N/A)0 .. 20,0000%00:00 (00:00)
184 VR Journey Dec 15, 2016 $0.51N/A (N/A)20,000 .. 50,0000%00:00 (00:00)
185 Arma Tactics Oct 1, 2013 $8.99N/A (N/A/47%)200,000 .. 500,0000%00:00 (00:00)
186 Run or Die Dec 11, 2014 $4.99N/A (N/A)20,000 .. 50,0000%00:00 (00:00)
187 Mad Combat Marines Jul 13, 2016 $0.99N/A (N/A)20,000 .. 50,0000%00:00 (00:00)
188 A Game of Dwarves Oct 23, 2012 $9.99N/A (N/A/60%)50,000 .. 100,0000%00:00 (00:00)
189 Khet 2.0 Oct 1, 2014 $9.99N/A (N/A)50,000 .. 100,0000%00:00 (00:00)
190 Phoning Home Feb 7, 2017 $2.99N/A (N/A/61%)20,000 .. 50,0000%00:00 (00:00)
191 Age of Wonders Oct 2010 $1.19N/A (N/A)100,000 .. 200,0000%00:00 (00:00)
192 Psichodelya Aug 8, 2014 $1.99N/A (N/A)100,000 .. 200,0000%00:00 (00:00)
193 Ace of Protectors Jun 27, 2016 $1.99N/A (N/A)20,000 .. 50,0000%00:00 (00:00)
194 Delta Force 2 Jun 18, 2009 $4.99N/A (N/A)20,000 .. 50,0000%00:00 (00:00)
195 1849 May 8, 2014 $14.99N/A (N/A)20,000 .. 50,0000%00:00 (00:00)
196 Incandescent Jun 30, 2015 $0.99N/A (N/A)20,000 .. 50,0000%00:00 (00:00)
197 Civilization IV: Warlords Apr 6, 2007 $4.99N/A (N/A/84%)1,000,000 .. 2,000,0000%00:00 (00:00)
198 Devil's Dare 悪魔の挑戦 Oct 21, 2014 $12.99N/A (N/A)20,000 .. 50,0000%00:00 (00:00)
199 Pongo May 14, 2015 $0.99N/A (N/A)100,000 .. 200,0000%00:00 (00:00)
200 Major Mayhem Feb 24, 2014 $4.99N/A (N/A)20,000 .. 50,0000%00:00 (00:00)
201 Bombshell Jan 29, 2016 $34.99N/A (N/A/43%)20,000 .. 50,0000%00:00 (00:00)
202 Chainsaw Warrior Oct 7, 2013 $4.99N/A (N/A)100,000 .. 200,0000%00:00 (00:00)
203 The Tiny Tale 2 Jan 30, 2015 $6.99N/A (N/A)0 .. 20,0000%00:00 (00:00)
204 One Star Apr 17, 2017 $0.51N/A (N/A)50,000 .. 100,0000%00:00 (00:00)
205 Battle Worlds: Kronos Nov 4, 2013 $19.99N/A (N/A/71%)20,000 .. 50,0000%00:00 (00:00)
206 Executive Assault Jul 17, 2015 $12.99N/A (N/A)50,000 .. 100,0000%00:00 (00:00)
207 Extravaganza Rising Jul 21, 2016 N/AN/A (N/A)20,000 .. 50,0000%00:00 (00:00)
208 Check vs Mate Aug 16, 2012 $19.99N/A (N/A/69%)20,000 .. 50,0000%00:00 (00:00)
209 Gold Rush! Anniversary Nov 7, 2014 $2.03N/A (N/A)100,000 .. 200,0000%00:00 (00:00)
210 REDCON Apr 22, 2016 $5.99N/A (N/A)0 .. 20,0000%00:00 (00:00)
211 Pride of Nations Jun 7, 2011 $19.99N/A (N/A/70%)20,000 .. 50,0000%00:00 (00:00)
212 The Nightmare Cooperative Jul 16, 2014 $1.24N/A (N/A)50,000 .. 100,0000%00:00 (00:00)
213 Legend (1994) Apr 1, 1994 $4.99N/A (N/A)0 .. 20,0000%00:00 (00:00)
214 Making History II: The War of the World Aug 27, 2010 $14.99N/A (N/A/38%)20,000 .. 50,0000%00:00 (00:00)
215 Brigade E5: New Jagged Union Oct 17, 2006 $3.99N/A (N/A/41%)0 .. 20,0000%00:00 (00:00)
216 Vendetta - Curse of Raven's Cry Nov 20, 2015 $29.99N/A (N/A)0 .. 20,0000%00:00 (00:00)
217 Starscape Nov 3, 2008 $7.99N/A (N/A)0 .. 20,0000%00:00 (00:00)
218 8-Bit Commando Jul 27, 2011 $3.99N/A (N/A)50,000 .. 100,0000%00:00 (00:00)
219 Defend The Highlands Nov 6, 2015 $9.99N/A (N/A)100,000 .. 200,0000%00:00 (00:00)
220 Ku: Shroud of the Morrigan Mar 17, 2014 $4.99N/A (N/A)20,000 .. 50,0000%00:00 (00:00)
221 Devils & Demons Oct 6, 2015 $9.99N/A (N/A)20,000 .. 50,0000%00:00 (00:00)
222 Jagged Alliance Flashback Oct 21, 2014 $19.99N/A (N/A)20,000 .. 50,0000%00:00 (00:00)
223 David. Mar 14, 2014 $1.99N/A (N/A)50,000 .. 100,0000%00:00 (00:00)
224 Divinity: Dragon Commander Aug 6, 2013 $39.99N/A (N/A)200,000 .. 500,0000%00:00 (00:00)
225 Velocity 2X Aug 19, 2015 $19.99N/A (N/A)50,000 .. 100,0000%00:00 (00:00)
226 Mysterium: A Psychic Clue Game Jan 12, 2017 $6.99N/A (N/A)50,000 .. 100,0000%00:00 (00:00)
227 Rise of Venice Sep 27, 2013 $19.99N/A (N/A/66%)50,000 .. 100,00050%00:03 (00:03)
228 Fat Chicken Dec 4, 2014 $9.99N/A (N/A)0 .. 20,0000%00:00 (00:00)
229 Smithy Jun 3, 2016 $3.99N/A (N/A)20,000 .. 50,0000%00:00 (00:00)
230 Dungeons - The Dark Lord Sep 27, 2011 $19.99N/A (N/A/72%)100,000 .. 200,0000%00:00 (00:00)
231 Supreme Ruler Ultimate Oct 17, 2014 $19.99N/A (N/A)20,000 .. 50,0000%00:00 (00:00)
232 Marvel: Ultimate Alliance 2 Jul 26, 2016 N/AN/A (N/A)0 .. 20,0000%00:00 (00:00)
233 Age of Wonders Shadow Magic Oct 2010 $9.99N/A (N/A/82%)100,000 .. 200,0000%00:00 (00:00)
234 Aeon Command Jul 3, 2014 $2.99N/A (N/A)20,000 .. 50,0000%00:00 (00:00)
235 Prospekt Feb 18, 2016 $9.99N/A (N/A/43%)20,000 .. 50,0000%00:00 (00:00)
236 Disciples III - Renaissance Steam Special Edition Jul 16, 2010 $14.99N/A (N/A/56%)100,000 .. 200,0000%00:00 (00:00)
237 Royal Defense Nov 10, 2014 $0.49N/A (N/A)100,000 .. 200,0000%00:00 (00:00)
238 Lost in Paradise Aug 20, 2015 $2.99N/A (N/A)20,000 .. 50,0000%00:00 (00:00)
239 Ghost Master Dec 21, 2006 $4.99N/A (N/A/81%)100,000 .. 200,0000%00:00 (00:00)
240 Battlepillars Gold Edition Apr 28, 2014 $4.99N/A (N/A)20,000 .. 50,0000%00:00 (00:00)
241 Blacksea Odyssey Jun 1, 2016 $9.99N/A (N/A/74%)20,000 .. 50,0000%00:00 (00:00)
242 Platformines Mar 28, 2014 $9.99N/A (N/A/67%)100,000 .. 200,0000%00:00 (00:00)
243 Trigger Runners Mar 3, 2016 $1.99N/A (N/A)0 .. 20,0000%00:00 (00:00)
244 Stick it to The Man! Dec 13, 2013 $7.99N/A (N/A/83%)20,000 .. 50,0000%00:00 (00:00)
245 Stay Dead Evolution Feb 4, 2015 $5.99N/A (N/A)20,000 .. 50,0000%00:00 (00:00)
246 Skyward Collapse May 23, 2013 $4.99N/A (N/A/64%)100,000 .. 200,0000%00:00 (00:00)
247 Battle Fleet 2 Nov 20, 2014 $14.99N/A (N/A)20,000 .. 50,0000%00:00 (00:00)
248 Bulletstorm: Full Clip Edition Apr 7, 2017 $39.99N/A (N/A/76%)50,000 .. 100,0000%00:00 (00:00)
249 Conflict Desert Storm May 28, 2012 $6.99N/A (N/A/56%)50,000 .. 100,0000%00:00 (00:00)
250 There Came an Echo Feb 24, 2015 $14.99N/A (N/A/58%)20,000 .. 50,0000%00:00 (00:00)
251 TableTop Soccer Apr 22, 2016 $0.99N/A (N/A)0 .. 20,0000%00:00 (00:00)
252 Sengoku Sep 15, 2011 $9.99N/A (N/A/70%)100,000 .. 200,0000%00:00 (00:00)
253 Advanced Tactics Gold Aug 15, 2014 $29.99N/A (N/A)0 .. 20,0000%00:00 (00:00)
254 Junk Jack Nov 30, 2016 $14.99N/A (N/A)20,000 .. 50,0000%00:00 (00:00)
255 Greed Corp Dec 10, 2010 $9.99N/A (N/A/76%)200,000 .. 500,0000%00:00 (00:00)
256 Magnetic By Nature Nov 10, 2014 $9.99N/A (N/A)0 .. 20,0000%00:00 (00:00)
257 FIVE: Guardians of David Nov 24, 2015 $9.99N/A (N/A/66%)20,000 .. 50,0000%00:00 (00:00)
258 Tom Clancy's EndWar Feb 25, 2009 $9.99N/A (N/A/68%)100,000 .. 200,0000%00:00 (00:00)
259 Rex Rocket Aug 5, 2014 $4.99N/A (N/A)20,000 .. 50,0000%00:00 (00:00)
260 Superstatic Sep 15, 2015 $4.99N/A (N/A)0 .. 20,0000%00:00 (00:00)
261 The Last Federation Apr 18, 2014 $19.99N/A (N/A/72%)50,000 .. 100,0000%00:00 (00:00)
262 AirMech Command Mar 8, 2017 $19.99N/A (N/A)0 .. 20,0000%00:00 (00:00)
263 Tank Operations: European Campaign Nov 22, 2013 N/AN/A (N/A)20,000 .. 50,0000%00:00 (00:00)
264 Rise & Shine Jan 13, 2017 $14.99N/A (N/A)50,000 .. 100,0000%00:00 (00:00)
265 Sid Meier’s Ace Patrol Aug 27, 2013 $4.99N/A (N/A)500,000 .. 1,000,0000%00:00 (00:00)
266 Royal Bounty HD Aug 10, 2015 $2.99N/A (N/A)0 .. 20,0000%00:00 (00:00)
267 Child Of Ault Jan 24, 2017 $9.99N/A (N/A)0 .. 20,0000%00:00 (00:00)
268 Sang-Froid - Tales of Werewolves Apr 5, 2013 FreeN/A (N/A/79%)200,000 .. 500,0000%00:00 (00:00)
269 Clash of Puppets Dec 16, 2014 $4.99N/A (N/A)0 .. 20,0000%00:00 (00:00)
270 Syrian Warfare Feb 21, 2017 $13.99N/A (N/A)100,000 .. 200,0000%00:00 (00:00)
271 Disciples III - Resurrection Oct 11, 2011 $14.99N/A (N/A/63%)100,000 .. 200,0000%00:00 (00:00)
272 Foresight Nov 28, 2014 $4.99N/A (N/A)0 .. 20,0000%00:00 (00:00)
273 Star Realms Mar 8, 2016 FreeN/A (N/A)100,000 .. 200,0000%00:00 (00:00)
274 Monday Night Combat Jan 24, 2011 $4.99N/A (N/A/82%)200,000 .. 500,0000%00:00 (00:00)
275 Blue Estate The Game Apr 8, 2015 $12.99N/A (N/A/59%)50,000 .. 100,0000%00:00 (00:00)
276 Quick Slick Deadly Sep 21, 2015 $1.99N/A (N/A)20,000 .. 50,0000%00:00 (00:00)
277 Chaser Jul 16, 2010 $4.99N/A (N/A/66%)50,000 .. 100,0000%00:00 (00:00)
278 Smugglers 5 Apr 11, 2014 $9.99N/A (N/A)20,000 .. 50,0000%00:00 (00:00)
279 Hydraulic Empire Jul 31, 2015 $7.99N/A (N/A)0 .. 20,0000%00:00 (00:00)
280 Making History: The Calm & the Storm Mar 13, 2007 $4.99N/A (N/A/70%)50,000 .. 100,0000%00:00 (00:00)
281 Strategic War in Europe Mar 21, 2014 $14.99N/A (N/A)20,000 .. 50,0000%00:00 (00:00)
282 Riddled Corpses Jun 2, 2015 $1.99N/A (N/A)20,000 .. 50,0000%00:00 (00:00)
283 Deadly 30 Jan 8, 2014 $4.99N/A (N/A)100,000 .. 200,0000%00:00 (00:00)
284 Interloper May 21, 2015 FreeN/A (N/A/77%)50,000 .. 100,0000%00:00 (00:00)
285 Master Reboot Oct 29, 2013 $4.49N/A (N/A/59%)50,000 .. 100,0000%00:00 (00:00)
286 Super Cyborg Jul 8, 2015 $4.99N/A (N/A)20,000 .. 50,0000%00:00 (00:00)
287 7 Grand Steps: What Ancients Begat Jun 7, 2013 $19.99N/A (N/A)100,000 .. 200,0000%00:00 (00:00)
288 Fortified Feb 3, 2016 $14.99N/A (N/A)500,000 .. 1,000,0000%00:00 (00:00)
289 Star Project Aug 4, 2016 $0.51N/A (N/A)50,000 .. 100,0000%00:00 (00:00)
290 Conquest of Elysium 3 Oct 24, 2012 $9.99N/A (N/A)20,000 .. 50,0000%00:00 (00:00)
291 Deadlings: Rotten Edition Nov 11, 2014 $3.99N/A (N/A)50,000 .. 100,0000%00:00 (00:00)
292 Magic Quest May 6, 2016 $1.99N/A (N/A)50,000 .. 100,0000%00:00 (00:00)
293 Supreme Ruler: Cold War Jul 29, 2011 $9.99N/A (N/A/63%)20,000 .. 50,0000%00:00 (00:00)
294 The Way May 20, 2016 $14.99N/A (N/A/67%)100,000 .. 200,0000%00:00 (00:00)
295 Goblin Defenders: Steel‘n’ Wood Aug 21, 2013 $2.99N/A (N/A)20,000 .. 50,0000%00:00 (00:00)
296 Commander: Conquest of the Americas Jul 30, 2010 $9.99N/A (N/A/68%)50,000 .. 100,0000%00:00 (00:00)
297 Viktor Jun 13, 2014 $7.99N/A (N/A)20,000 .. 50,0000%00:00 (00:00)
298 Mold on Pizza Sep 25, 2015 $5.99N/A (N/A)20,000 .. 50,0000%00:00 (00:00)
299 Earth Defense Force: Insect Armageddon Dec 14, 2011 $9.99N/A (N/A/69%)50,000 .. 100,0000%00:00 (00:00)
300 Perimeter: Emperor's Testament May 22, 2014 $3.99N/A (N/A/72%)20,000 .. 50,0000%00:00 (00:00)
301 Island Defense Jul 23, 2015 $1.99N/A (N/A)100,000 .. 200,0000%00:00 (00:00)
302 Z Jul 4, 2014 $6.99N/A (N/A)100,000 .. 200,0000%00:00 (00:00)
303 Redemption: Saints And Sinners Nov 18, 2016 $0.99N/A (N/A)50,000 .. 100,0000%00:00 (00:00)
304 Distant Worlds: Universe May 23, 2014 $59.99N/A (N/A/81%)50,000 .. 100,0000%00:00 (00:00)
305 Burstfire Sep 24, 2015 N/AN/A (N/A)50,000 .. 100,0000%00:00 (00:00)
306 VelocityUltra Dec 12, 2013 $9.99N/A (N/A)50,000 .. 100,0000%00:00 (00:00)
307 Strategy & Tactics: Wargame Collection Apr 22, 2016 $9.99N/A (N/A)50,000 .. 100,0000%00:00 (00:00)
308 Cemetery Warrior 3 Feb 3, 2017 $0.99N/A (N/A)20,000 .. 50,0000%00:00 (00:00)
309 Scourge: Outbreak Apr 2, 2014 $7.99N/A (N/A)100,000 .. 200,0000%00:00 (00:00)
310 Hail to the King: Deathbat Oct 30, 2014 $5.99N/A (N/A)0 .. 20,0000%00:00 (00:00)
311 Beasts Battle Jun 15, 2016 $1.99N/A (N/A)20,000 .. 50,0000%00:00 (00:00)
312 Impire Feb 14, 2013 $19.99N/A (N/A/45%)100,000 .. 200,0000%00:00 (00:00)
313 A.R.E.S. Extinction Agenda EX Oct 3, 2014 $9.99N/A (N/A)0 .. 20,0000%00:00 (00:00)
314 Legends of Callasia Jun 10, 2016 FreeN/A (N/A)50,000 .. 100,0000%00:00 (00:00)
315 Swords and Soldiers HD Dec 2, 2010 $9.99N/A (N/A)100,000 .. 200,0000%00:00 (00:00)
316 World War 2: Time of Wrath Jun 6, 2014 $4.99N/A (N/A)20,000 .. 50,0000%00:00 (00:00)
317 Reverse Crawl Sep 24, 2015 $1.79N/A (N/A)20,000 .. 50,0000%00:00 (00:00)
318 The Kings' Crusade Oct 8, 2010 $9.99N/A (N/A/71%)50,000 .. 100,0000%00:00 (00:00)
319 NOBUNAGA'S AMBITION: Souzou (Traditional Chinese version) Aug 2014 $24.99N/A (N/A)20,000 .. 50,000100%00:11 (00:11)
320 Dandy: Or a Brief Glimpse Into the Life of the Candy Alchemist Aug 4, 2015 $9.99N/A (N/A)0 .. 20,0000%00:00 (00:00)
321 Lost Planet: Extreme Condition Jun 26, 2007 $14.99N/A (N/A/66%)200,000 .. 500,0000%00:00 (00:00)
322 The Campaign Series: Fall Weiss May 30, 2014 $14.99N/A (N/A)20,000 .. 50,0000%00:00 (00:00)
323 Templar Battleforce Sep 21, 2015 $9.99N/A (N/A)20,000 .. 50,0000%00:00 (00:00)
324 Meridian: New World Sep 26, 2014 $6.99N/A (N/A/43%)100,000 .. 200,0000%00:00 (00:00)
325 Kick Ass Commandos Nov 17, 2016 $9.99N/A (N/A)20,000 .. 50,0000%00:00 (00:00)
326 Anomaly Warzone Earth Mobile Campaign Nov 6, 2013 $4.99N/A (N/A)100,000 .. 200,0000%00:00 (00:00)
327 Dustoff Heli Rescue Mar 6, 2015 $3.99N/A (N/A)20,000 .. 50,0000%00:00 (00:00)
328 Bleed Jul 3, 2013 $4.99N/A (N/A)100,000 .. 200,0000%00:00 (00:00)
329 Star Traders: 4X Empires Nov 18, 2014 $9.99N/A (N/A)0 .. 20,0000%00:00 (00:00)
330 The Superfluous May 19, 2017 $4.99N/A (N/A)0 .. 20,0000%00:00 (00:00)
331 Painkiller Hell & Damnation Oct 31, 2012 $19.99N/A (N/A/64%)500,000 .. 1,000,0000%00:00 (00:00)
332 Magnifico Dec 2, 2014 $4.99N/A (N/A)50,000 .. 100,0000%00:00 (00:00)
333 Auro: A Monster-Bumping Adventure Apr 13, 2016 $6.99N/A (N/A)0 .. 20,0000%00:00 (00:00)
334 APOX Jan 20, 2011 $14.99N/A (N/A/48%)20,000 .. 50,0000%00:00 (00:00)
335 Battle Mages: Sign of Darkness Jul 24, 2014 $4.99N/A (N/A)20,000 .. 50,0000%00:00 (00:00)
336 Vector Strain Dec 9, 2015 $4.99N/A (N/A)20,000 .. 50,0000%00:00 (00:00)
337 Atom Zombie Smasher Mar 14, 2011 $9.99N/A (N/A/75%)200,000 .. 500,0000%00:00 (00:00)
338 Space Colony: Steam Edition Apr 30, 2015 $14.99N/A (N/A/74%)100,000 .. 200,0000%00:00 (00:00)
339 Tic-Toc-Tower Sep 28, 2015 $2.99N/A (N/A)0 .. 20,0000%00:00 (00:00)
340 Elven Legacy Apr 7, 2009 $1.24N/A (N/A/71%)50,000 .. 100,0000%00:00 (00:00)
341 Freight Tycoon Inc. Apr 3, 2014 $4.99N/A (N/A)20,000 .. 50,0000%00:00 (00:00)
342 Tiki Man Jun 4, 2015 $0.99N/A (N/A)20,000 .. 50,0000%00:00 (00:00)
343 Battle Group 2 Jun 13, 2014 $7.99N/A (N/A)50,000 .. 100,0000%00:00 (00:00)
344 TASTEE: Lethal Tactics May 10, 2016 $14.99N/A (N/A)20,000 .. 50,0000%00:00 (00:00)
345 Last Knight: Rogue Rider Edition Oct 3, 2014 $7.99N/A (N/A)20,000 .. 50,0000%00:00 (00:00)
346 Supercharged Robot VULKAISER Jun 4, 2015 $4.99N/A (N/A)20,000 .. 50,0000%00:00 (00:00)
347 ENSLAVED: Odyssey to the West Premium Edition Oct 24, 2013 $19.99N/A (N/A/70%)200,000 .. 500,0000%00:00 (00:00)
348 Urja Jan 9, 2015 $9.99N/A (N/A)20,000 .. 50,0000%00:00 (00:00)
349 rooMaze Mar 3, 2017 $1.99N/A (N/A)100,000 .. 200,0000%00:00 (00:00)
350 March of the Eagles Feb 18, 2013 $19.99N/A (N/A/71%)50,000 .. 100,0000%00:00 (00:00)
351 Ironcast Mar 26, 2015 $14.99N/A (N/A/75%)20,000 .. 50,0000%00:00 (00:00)
352 Mr. Shifty Apr 13, 2017 $14.99N/A (N/A)50,000 .. 100,0000%00:00 (00:00)
353 Men of War: Condemned Heroes Apr 12, 2012 $7.99N/A (N/A/57%)100,000 .. 200,0000%00:00 (00:00)
354 Stonerid Aug 15, 2014 $0.49N/A (N/A)20,000 .. 50,0000%00:00 (00:00)
355 Control Craft 2 Feb 15, 2016 $2.99N/A (N/A)0 .. 20,0000%00:00 (00:00)

Tags over time:

Access restricted.

This feature is only available to users with special access rights. Sorry.

If you want to proceed, you need to register or log in first and then back Steam Spy on Patreon. Look for Indie or Pro pledge.

Don't forget to use the same email as on Steam Spy!

Owners of this game also own:

Access restricted.

This feature is only available to users with special access rights. Sorry.

If you want to proceed, you need to register or log in first and then back Steam Spy on Patreon. Look for Indie or Pro pledge.

Don't forget to use the same email as on Steam Spy!

Playtime distribution:

Access restricted.

This feature is only available to users with special access rights. Sorry.

If you want to proceed, you need to register or log in first and then back Steam Spy on Patreon. Look for Indie or Pro pledge.

Don't forget to use the same email as on Steam Spy!

Playtime (2 weeks):

Access restricted.

This feature is only available to users with special access rights. Sorry.

If you want to proceed, you need to register or log in first and then back Steam Spy on Patreon. Look for Indie or Pro pledge.

Don't forget to use the same email as on Steam Spy!

User reviews:

Login required.

Please register or log in to see this information.